No: Datum Uhrzeit Land Meereshöhe Ort Wetter Info Temp/°C Luftfeuchte Luftdruck Wind Regen Schnee
9110 >21.09.2017 >12:06:47 228 m Uettingen Sonne-Regen + 8,1° 96% 1022.7 hPa 0,0 km/h 0,2 mm 0 cm
9109 >21.09.2017 >09:44:51 310 m Capellen Nebel + 6,4° 98% 1021.7 hPa 0,0 km/h 0,0 mm 0 cm
9108 >21.09.2017 >05:26:35 494 m Büren NW sternenklar + 5,2° 83% 1020.7 hPa 0,8 km/h 0,0 mm 0 cm
9107 >20.09.2017 >13:24:56 566 m Brienz bewölkt-Sonne + 13,5° 58% 1021.6 hPa 5,4 km/h 0,0 mm 0 cm
9106 >20.09.2017 >12:25:51 764 m Zell am See bedeckt + 10,1° 100% 975.0 hPa 12,0 km/h 6,1 mm 0 cm
9105 >20.09.2017 >10:09:49 228 m Uettingen bedeckt + 11,1° 92% 1021.8 hPa 8,3 km/h 0,0 mm 0 cm
9104 >19.09.2017 >17:25:21 279 m Lana Sonne-Regen + 17,4° 81% 1011.4 hPa 0,0 km/h 0,2 mm 0 cm
9103 >19.09.2017 >11:19:31 566 m Brienz Regen + 8,8° 87% 1018.5 hPa 5,4 km/h 3,7 mm 0 cm
9102 >19.09.2017 >09:56:36 230 m Perl bedeckt + 11,1° 91% 1019.7 hPa 0,0 km/h 2,4 mm 0 cm
9101 >19.09.2017 >09:12:30 1 m Ostende Regen +/- 0° 97% 1006.2 hPa 3,6 km/h 6,2 mm 0 cm
9100 >19.09.2017 >06:09:00 296 m Mamer bedeckt + 9,3° 96% 1016.8 hPa 1,4 km/h 0,0 mm 0 cm
9099 >18.09.2017 >18:57:56 310 m Capellen bedeckt + 12,5° 77% 1016.3 hPa 1,4 km/h 0,0 mm 0 cm
9098 >18.09.2017 >10:06:25 257 m Aachen Regen + 9,4° 92% 1013.4 hPa 4,8 km/h 2,0 mm 0 cm
9097 >18.09.2017 >07:16:07 525 m Ottnang/Hausruck Regen + 7,8° 94% 1011.2 hPa 7,2 km/h 4,4 mm 0 cm
9096 >17.09.2017 >14:41:48 298 m Mamer bedeckt + 13,8° 73% 1013.2 hPa 0,0 km/h 0,0 mm 0 cm
9095 >17.09.2017 >12:10:31 228 m Uettingen bedeckt + 13,7° 83% 1013.8 hPa 2,6 km/h 0,0 mm 0 cm
9094 >17.09.2017 >11:34:55 402 m Lourdes bedeckt + 14° 74% 1017.0 hPa 19,0 km/h 0,0 mm 0 cm
9093 >17.09.2017 >09:41:55 310 m Capellen Nebel + 7,5° 98% 1014.2 hPa 1,4 km/h 0,0 mm 0 cm
9092 >16.09.2017 >11:48:36 566 m Brienz bedeckt + 11,8° 78% 1011.7 hPa 4,3 km/h 0,0 mm 0 cm
9091 >16.09.2017 >08:05:47 257 m Aachen bewölkt-Sonne + 7,2° 93% 1009.6 hPa 5,7 km/h 0,0 mm 0 cm
9090 >15.09.2017 >11:38:18 525 m Ottnang/Hausruck bewölkt-Sonne + 14,5° 62% 1009.7 hPa 1,7 km/h 0,0 mm 0 cm
9089 >15.09.2017 >10:39:34 310 m Capellen Regen + 10,4° 95% 1013.3 hPa 0,0 km/h 0,8 mm 0 cm
9088 >15.09.2017 >06:16:54 318 m Stuttgard bedeckt + 9,9° 81% 1017.1 hPa 9,4 km/h 0,0 mm 0 cm
9087 >15.09.2017 >06:03:11 296 m Mamer bedeckt + 9,5° 96% 1013.7 hPa 9,7 km/h 0,0 mm 0 cm
9086 >14.09.2017 >12:02:43 228 m Uettingen Regen + 10,8° 92% 1005.7 hPa 8,4 km/h 10,8 mm 0 cm

Admin